Time;durP1;ratioP1;P1;durP2;ratioP2;P2;SDS_P1;SDS_P2;PMS_P1;PMS_P2;Temp;Humidity;BMP_temperature;BMP_pressure;BME280_temperature;BME280_humidity;BME280_pressure;Samples;Min_cycle;Max_cycle;Signal;HPM_P1;HPM_P2
2024/01/10 00:02:05;;;;;;;12.17;7.87;;;-0.40;69.80;;;;;;4863556;29;20195;-60
2024/01/10 00:04:30;;;;;;;11.73;8.20;;;-0.40;69.00;;;;;;4848018;29;20523;-59
2024/01/10 00:06:56;;;;;;;8.33;7.50;;;-0.50;68.00;;;;;;4872787;29;20519;-63
2024/01/10 00:09:22;;;;;;;15.10;8.63;;;-0.70;68.10;;;;;;4886114;29;20176;-59
2024/01/10 00:11:48;;;;;;;10.45;7.35;;;-0.60;68.70;;;;;;4882726;29;20180;-59
2024/01/10 00:14:14;;;;;;;12.93;8.23;;;-0.50;68.70;;;;;;4879124;29;20262;-59
2024/01/10 00:16:40;;;;;;;12.57;8.37;;;-0.30;69.40;;;;;;4879918;29;20184;-59
2024/01/10 00:19:05;;;;;;;11.43;7.53;;;-0.20;69.30;;;;;;4870490;29;20330;-59
2024/01/10 00:21:31;;;;;;;10.90;7.93;;;-0.30;68.30;;;;;;4888120;29;20176;-60
2024/01/10 00:23:57;;;;;;;12.80;8.93;;;-0.30;68.40;;;;;;4879364;29;20188;-60
2024/01/10 00:26:23;;;;;;;13.13;8.55;;;-0.30;68.60;;;;;;4885734;29;20183;-59
2024/01/10 00:28:49;;;;;;;9.17;7.77;;;-0.20;69.00;;;;;;4894784;29;20187;-60
2024/01/10 00:31:14;;;;;;;9.17;8.00;;;-0.10;68.90;;;;;;4878519;29;20194;-59
2024/01/10 00:33:40;;;;;;;11.93;7.33;;;-0.30;68.10;;;;;;4892093;29;20262;-60
2024/01/10 00:36:06;;;;;;;10.70;8.33;;;-0.80;68.40;;;;;;4878886;29;20180;-59
2024/01/10 00:38:32;;;;;;;11.57;8.20;;;-1.00;69.40;;;;;;4883704;29;20251;-60
2024/01/10 00:40:58;;;;;;;9.32;7.22;;;-1.20;70.70;;;;;;4866948;29;20190;-60
2024/01/10 00:43:24;;;;;;;12.53;7.60;;;-1.30;71.80;;;;;;4884860;29;20176;-59
2024/01/10 00:45:50;;;;;;;13.30;8.30;;;-1.50;72.40;;;;;;4875560;29;20432;-59
2024/01/10 00:48:17;;;;;;;11.10;7.53;;;-1.50;73.30;;;;;;4881238;29;20268;-59
2024/01/10 00:50:44;;;;;;;15.70;7.97;;;-1.80;74.40;;;;;;4863943;29;20451;-60
2024/01/10 00:53:10;;;;;;;13.02;7.72;;;-1.90;75.40;;;;;;4896387;29;20649;-59
2024/01/10 00:55:36;;;;;;;10.55;7.38;;;-2.00;76.90;;;;;;4886304;29;20183;-59
2024/01/10 00:58:01;;;;;;;9.70;7.27;;;-2.00;78.70;;;;;;4887107;29;20198;-59
2024/01/10 01:00:27;;;;;;;9.93;7.97;;;-2.00;79.70;;;;;;4895248;29;20207;-59
2024/01/10 01:02:53;;;;;;;14.27;8.70;;;-2.10;79.40;;;;;;4884214;29;20434;-59
2024/01/10 01:05:19;;;;;;;16.63;9.37;;;-2.30;81.60;;;;;;4892373;29;20468;-61
2024/01/10 01:07:44;;;;;;;14.33;8.77;;;-2.30;83.80;;;;;;4884287;29;20511;-59
2024/01/10 01:10:10;;;;;;;13.57;8.20;;;-2.40;84.70;;;;;;4878350;29;20286;-60
2024/01/10 01:12:36;;;;;;;10.40;7.30;;;-2.40;85.50;;;;;;4890163;29;20180;-60
2024/01/10 01:15:02;;;;;;;11.40;7.70;;;-2.50;85.40;;;;;;4877471;29;20430;-60
2024/01/10 01:17:28;;;;;;;8.73;6.80;;;-2.60;85.90;;;;;;4880265;29;20822;-60
2024/01/10 01:19:54;;;;;;;11.70;8.03;;;-2.70;86.90;;;;;;4894101;29;20525;-60
2024/01/10 01:22:20;;;;;;;13.38;8.38;;;-2.70;87.40;;;;;;4881907;29;20992;-60
2024/01/10 01:24:45;;;;;;;13.93;8.80;;;-2.70;88.40;;;;;;4884213;29;20266;-60
2024/01/10 01:27:11;;;;;;;12.00;8.10;;;-2.60;88.70;;;;;;4882082;29;20186;-60
2024/01/10 01:29:37;;;;;;;12.53;7.97;;;-2.50;88.30;;;;;;4890858;29;20183;-59
2024/01/10 01:32:03;;;;;;;8.40;7.50;;;-2.40;87.20;;;;;;4896384;29;20182;-60
2024/01/10 01:34:28;;;;;;;9.93;7.18;;;-2.30;86.70;;;;;;4900668;29;20194;-60
2024/01/10 01:36:54;;;;;;;12.63;7.50;;;-2.20;86.20;;;;;;4887700;29;20219;-60
2024/01/10 01:39:20;;;;;;;15.23;7.63;;;-2.00;85.70;;;;;;4864146;29;20439;-60
2024/01/10 01:41:46;;;;;;;12.57;8.50;;;-1.90;84.20;;;;;;4866360;29;20195;-60
2024/01/10 01:44:11;;;;;;;12.30;8.77;;;-1.70;83.20;;;;;;4888745;29;20633;-60
2024/01/10 01:46:40;;;;;;;15.40;9.03;;;-1.50;82.20;;;;;;4888799;29;20179;-60
2024/01/10 01:49:06;;;;;;;10.82;7.95;;;-1.50;81.00;;;;;;4898033;29;20195;-60
2024/01/10 01:51:35;;;;;;;11.50;8.00;;;-1.30;80.80;;;;;;4893980;29;20188;-60
2024/01/10 01:54:01;;;;;;;8.02;7.22;;;-1.10;80.70;;;;;;4895350;29;20607;-60
2024/01/10 01:56:26;;;;;;;13.07;8.10;;;-1.10;80.20;;;;;;4888039;29;20306;-60
2024/01/10 01:58:54;;;;;;;10.60;8.80;;;-1.20;79.90;;;;;;4886831;29;20203;-60
2024/01/10 02:01:22;;;;;;;13.23;7.90;;;-1.20;80.60;;;;;;4889199;29;20473;-60
2024/01/10 02:03:48;;;;;;;12.93;8.68;;;-1.10;80.40;;;;;;4868654;29;20180;-60
2024/01/10 02:06:14;;;;;;;12.90;8.77;;;-1.10;80.10;;;;;;4891251;29;20550;-60
2024/01/10 02:08:40;;;;;;;13.90;8.70;;;-1.20;79.30;;;;;;4882652;29;20218;-60
2024/01/10 02:11:06;;;;;;;12.53;8.87;;;-1.10;79.40;;;;;;4898389;29;20908;-60
2024/01/10 02:13:33;;;;;;;13.45;8.65;;;-1.20;79.10;;;;;;4875512;29;20430;-59
2024/01/10 02:15:59;;;;;;;14.43;9.60;;;-1.30;79.10;;;;;;4881494;29;20180;-60
2024/01/10 02:18:25;;;;;;;10.88;7.40;;;-1.60;79.20;;;;;;4880132;29;20195;-60
2024/01/10 02:20:52;;;;;;;14.43;8.53;;;-1.70;80.50;;;;;;4884799;29;20629;-59
2024/01/10 02:23:18;;;;;;;12.15;8.88;;;-1.50;81.10;;;;;;4887060;29;20175;-60
2024/01/10 02:25:44;;;;;;;9.95;8.05;;;-1.40;80.70;;;;;;4899075;29;20187;-59
2024/01/10 02:28:10;;;;;;;15.80;9.15;;;-1.30;79.90;;;;;;4897012;29;20274;-60
2024/01/10 02:30:37;;;;;;;11.90;8.15;;;-1.30;79.90;;;;;;4883274;29;20219;-60
2024/01/10 02:33:03;;;;;;;10.43;8.50;;;-1.40;80.20;;;;;;4880513;29;20563;-60
2024/01/10 02:35:32;;;;;;;20.52;8.57;;;-1.40;80.50;;;;;;4881638;29;20179;-60
2024/01/10 02:37:58;;;;;;;15.55;9.85;;;-1.40;81.00;;;;;;4878467;29;20187;-60
2024/01/10 02:40:24;;;;;;;13.32;9.23;;;-1.30;81.20;;;;;;4879323;29;20237;-59
2024/01/10 02:42:51;;;;;;;15.60;9.37;;;-1.40;81.70;;;;;;4896335;29;20717;-60
2024/01/10 02:45:17;;;;;;;12.65;8.82;;;-1.30;82.50;;;;;;4898526;29;20592;-60
2024/01/10 02:47:44;;;;;;;17.80;9.10;;;-1.30;82.60;;;;;;4898997;29;20183;-60
2024/01/10 02:50:10;;;;;;;18.08;9.48;;;-1.20;82.90;;;;;;4897861;29;20199;-60
2024/01/10 02:52:35;;;;;;;14.20;9.50;;;-1.40;83.00;;;;;;4885617;29;20191;-60
2024/01/10 02:55:01;;;;;;;15.40;10.23;;;-1.40;83.50;;;;;;4873428;29;20442;-60
2024/01/10 02:57:27;;;;;;;15.77;9.80;;;-1.40;83.90;;;;;;4881305;29;20614;-60
2024/01/10 02:59:53;;;;;;;14.57;9.60;;;-1.40;84.10;;;;;;4887487;29;20802;-60
2024/01/10 03:02:18;;;;;;;16.10;9.13;;;-1.30;84.50;;;;;;4897986;29;20182;-60
2024/01/10 03:04:44;;;;;;;15.87;10.27;;;-1.30;84.30;;;;;;4880404;29;20184;-60
2024/01/10 03:07:10;;;;;;;20.07;9.97;;;-1.20;84.60;;;;;;4887510;29;20195;-60
2024/01/10 03:09:36;;;;;;;14.33;9.23;;;-1.20;84.50;;;;;;4879908;29;20472;-60
2024/01/10 03:12:02;;;;;;;10.93;8.25;;;-1.20;84.30;;;;;;4880152;29;20440;-60
2024/01/10 03:14:28;;;;;;;13.90;8.90;;;-1.20;84.00;;;;;;4879371;29;20184;-59
2024/01/10 03:16:54;;;;;;;12.93;8.93;;;-1.10;84.20;;;;;;4895869;29;20207;-60
2024/01/10 03:19:22;;;;;;;12.60;8.18;;;-1.00;84.00;;;;;;4879563;29;20723;-60
2024/01/10 03:21:48;;;;;;;14.03;8.43;;;-1.00;83.10;;;;;;4891323;29;20187;-60
2024/01/10 03:24:13;;;;;;;9.13;6.73;;;-1.00;82.60;;;;;;4881842;29;20271;-60
2024/01/10 03:26:39;;;;;;;15.30;7.57;;;-1.10;82.70;;;;;;4879883;29;20188;-60
2024/01/10 03:29:05;;;;;;;12.03;8.00;;;-1.00;82.40;;;;;;4879495;29;20259;-60
2024/01/10 03:31:31;;;;;;;9.87;7.23;;;-1.00;81.80;;;;;;4879336;29;20802;-60
2024/01/10 03:33:58;;;;;;;10.73;9.30;;;-0.90;81.20;;;;;;4898383;29;20666;-60
2024/01/10 03:36:24;;;;;;;17.20;8.07;;;-0.90;80.60;;;;;;4897623;29;20556;-60
2024/01/10 03:38:50;;;;;;;12.52;7.45;;;-0.90;80.20;;;;;;4898230;29;20231;-60
2024/01/10 03:41:17;;;;;;;14.23;7.27;;;-1.00;79.00;;;;;;4897193;29;20183;-60
2024/01/10 03:43:44;;;;;;;13.88;7.70;;;-1.30;78.80;;;;;;4898185;29;20420;-60
2024/01/10 03:46:10;;;;;;;11.63;8.20;;;-1.60;80.00;;;;;;4897389;29;20176;-60
2024/01/10 03:48:36;;;;;;;13.00;7.40;;;-1.40;81.80;;;;;;4882632;29;20263;-60
2024/01/10 03:51:03;;;;;;;8.52;7.15;;;-1.40;82.10;;;;;;4880277;29;20179;-60
2024/01/10 03:53:29;;;;;;;14.90;9.20;;;-1.30;82.60;;;;;;4879426;29;20180;-61
2024/01/10 03:55:55;;;;;;;10.30;7.93;;;-1.30;82.80;;;;;;4895310;29;20286;-60
2024/01/10 03:58:20;;;;;;;13.30;8.60;;;-1.20;82.10;;;;;;4885136;29;20263;-60
2024/01/10 04:00:46;;;;;;;13.40;8.53;;;-1.10;81.00;;;;;;4892346;29;20532;-59
2024/01/10 04:03:12;;;;;;;12.53;8.27;;;-1.00;80.70;;;;;;4884857;29;20184;-60
2024/01/10 04:05:38;;;;;;;11.73;8.30;;;-1.10;80.20;;;;;;4888366;29;20183;-60
2024/01/10 04:08:04;;;;;;;16.00;8.40;;;-1.00;80.00;;;;;;4880778;29;20210;-59
2024/01/10 04:10:30;;;;;;;12.10;8.10;;;-1.00;79.90;;;;;;4896796;29;20783;-59
2024/01/10 04:12:55;;;;;;;9.30;7.80;;;-1.10;78.30;;;;;;4879958;29;20183;-59
2024/01/10 04:15:21;;;;;;;14.83;8.00;;;-1.00;78.50;;;;;;4878286;29;20176;-60
2024/01/10 04:17:47;;;;;;;10.50;7.53;;;-1.00;78.60;;;;;;4878851;29;20182;-60
2024/01/10 04:20:13;;;;;;;12.30;8.93;;;-0.90;78.10;;;;;;4877881;29;20482;-60
2024/01/10 04:22:39;;;;;;;10.13;7.67;;;-0.90;77.90;;;;;;4894649;29;21003;-60
2024/01/10 04:25:07;;;;;;;10.33;7.67;;;-0.80;77.30;;;;;;4879770;29;20190;-59
2024/01/10 04:27:33;;;;;;;11.00;7.50;;;-0.80;77.10;;;;;;4878372;29;20240;-59
2024/01/10 04:29:58;;;;;;;11.30;7.80;;;-0.80;77.20;;;;;;4882281;29;20196;-60
2024/01/10 04:32:24;;;;;;;10.63;7.70;;;-0.80;76.90;;;;;;4883160;29;20489;-59
2024/01/10 04:34:50;;;;;;;10.30;7.60;;;-0.70;77.40;;;;;;4877019;29;20291;-60
2024/01/10 04:37:16;;;;;;;11.10;7.63;;;-0.70;77.50;;;;;;4881010;29;20179;-60
2024/01/10 04:39:42;;;;;;;12.35;9.48;;;-0.70;76.90;;;;;;4892363;29;20467;-59
2024/01/10 04:42:10;;;;;;;12.20;8.52;;;-0.80;77.00;;;;;;4895282;29;20198;-60
2024/01/10 04:44:36;;;;;;;11.70;9.43;;;-0.80;77.40;;;;;;4888469;29;20210;-59
2024/01/10 04:47:03;;;;;;;13.13;9.77;;;-0.70;79.00;;;;;;4895767;29;20539;-60
2024/01/10 04:49:28;;;;;;;10.90;8.88;;;-0.80;78.10;;;;;;4880230;29;20183;-60
2024/01/10 04:51:54;;;;;;;15.90;8.60;;;-0.80;78.10;;;;;;4880727;29;20191;-59
2024/01/10 04:54:20;;;;;;;9.33;7.93;;;-0.80;79.00;;;;;;4891803;29;20524;-60
2024/01/10 04:56:46;;;;;;;13.57;8.40;;;-0.80;79.70;;;;;;4887938;29;20547;-59
2024/01/10 04:59:12;;;;;;;10.53;8.83;;;-0.80;79.90;;;;;;4893649;29;20456;-60
2024/01/10 05:01:38;;;;;;;13.73;9.70;;;-0.80;80.40;;;;;;4898675;29;20186;-60
2024/01/10 05:04:04;;;;;;;19.25;11.45;;;-0.90;80.00;;;;;;4896984;29;20551;-59
2024/01/10 05:06:29;;;;;;;11.27;8.00;;;-1.10;79.80;;;;;;4887264;29;20182;-59
2024/01/10 05:08:57;;;;;;;14.67;8.53;;;-1.10;80.80;;;;;;4897172;29;20851;-60
2024/01/10 05:11:25;;;;;;;12.88;8.85;;;-1.10;82.30;;;;;;4889704;29;20463;-59
2024/01/10 05:13:51;;;;;;;11.40;8.93;;;-1.10;81.30;;;;;;4864016;29;20559;-59
2024/01/10 05:16:17;;;;;;;15.27;9.25;;;-1.10;81.40;;;;;;4896192;29;20179;-60
2024/01/10 05:18:43;;;;;;;11.20;7.43;;;-1.00;80.90;;;;;;4896971;29;20210;-60
2024/01/10 05:21:09;;;;;;;12.00;8.80;;;-1.00;80.70;;;;;;4896394;29;20423;-59
2024/01/10 05:23:35;;;;;;;12.73;8.87;;;-1.10;80.30;;;;;;4895668;29;20971;-59
2024/01/10 05:26:01;;;;;;;16.65;9.43;;;-1.10;80.30;;;;;;4883732;29;20432;-60
2024/01/10 05:28:27;;;;;;;12.88;8.75;;;-1.60;80.50;;;;;;4871174;29;20189;-59
2024/01/10 05:30:53;;;;;;;10.30;8.30;;;-1.70;82.80;;;;;;4878892;29;20625;-59
2024/01/10 05:33:20;;;;;;;13.27;8.30;;;-1.60;83.70;;;;;;4892018;29;20238;-60
2024/01/10 05:35:46;;;;;;;13.38;9.90;;;-1.50;84.00;;;;;;4877509;29;20585;-59
2024/01/10 05:38:11;;;;;;;10.07;8.32;;;-1.50;83.10;;;;;;4878497;29;20207;-59
2024/01/10 05:40:37;;;;;;;13.47;8.80;;;-1.40;82.90;;;;;;4881146;29;20199;-59
2024/01/10 05:43:03;;;;;;;13.43;7.57;;;-1.40;82.00;;;;;;4879398;29;20924;-59
2024/01/10 05:45:29;;;;;;;13.20;8.03;;;-1.30;81.50;;;;;;4879035;29;20176;-61
2024/01/10 05:47:55;;;;;;;13.37;9.10;;;-1.30;81.00;;;;;;4896730;29;20933;-58
2024/01/10 05:50:21;;;;;;;13.82;9.00;;;-1.20;81.10;;;;;;4885498;29;20187;-60
2024/01/10 05:52:47;;;;;;;11.47;8.67;;;-1.20;81.40;;;;;;4887156;29;20175;-60
2024/01/10 05:55:13;;;;;;;15.30;9.38;;;-1.20;81.70;;;;;;4869843;29;20523;-60
2024/01/10 05:57:39;;;;;;;16.88;11.85;;;-1.20;81.50;;;;;;4876939;29;20307;-59
2024/01/10 06:00:09;;;;;;;13.23;9.50;;;-1.30;81.40;;;;;;4881947;29;20211;-61
2024/01/10 06:02:38;;;;;;;11.23;9.23;;;-1.30;81.40;;;;;;4894859;29;20692;-60
2024/01/10 06:05:13;;;;;;;14.50;9.38;;;-1.30;81.20;;;;;;4899350;29;20195;-60
2024/01/10 06:07:41;;;;;;;15.40;9.80;;;-1.30;81.90;;;;;;4886104;29;20178;-60
2024/01/10 06:10:07;;;;;;;14.75;9.70;;;-1.40;82.40;;;;;;4881543;29;20186;-60
2024/01/10 06:12:33;;;;;;;15.40;9.93;;;-1.40;82.50;;;;;;4863902;29;20300;-60
2024/01/10 06:14:58;;;;;;;14.40;11.30;;;-1.40;82.30;;;;;;4864500;29;20626;-60
2024/01/10 06:17:24;;;;;;;13.80;10.23;;;-1.50;82.50;;;;;;4894043;29;20261;-60
2024/01/10 06:19:50;;;;;;;16.57;10.90;;;-1.40;83.10;;;;;;4883978;29;20200;-60
2024/01/10 06:22:16;;;;;;;16.03;10.07;;;-1.40;83.00;;;;;;4898847;29;20176;-60
2024/01/10 06:24:43;;;;;;;12.25;9.20;;;-1.40;83.10;;;;;;4899489;29;20431;-60
2024/01/10 06:27:09;;;;;;;11.20;9.60;;;-1.50;82.90;;;;;;4899843;29;20215;-61
2024/01/10 06:29:36;;;;;;;12.77;9.20;;;-1.50;83.40;;;;;;4895938;29;20870;-60
2024/01/10 06:32:03;;;;;;;15.85;9.60;;;-1.50;84.60;;;;;;4897362;29;20191;-60
2024/01/10 06:34:29;;;;;;;13.27;10.48;;;-1.60;85.50;;;;;;4897867;29;20179;-60
2024/01/10 06:36:55;;;;;;;18.37;10.87;;;-1.70;84.80;;;;;;4899515;29;20262;-60
2024/01/10 06:39:21;;;;;;;15.93;10.30;;;-2.00;85.20;;;;;;4894089;29;20231;-61
2024/01/10 06:41:47;;;;;;;13.50;9.65;;;-2.00;86.70;;;;;;4880664;29;20176;-60
2024/01/10 06:44:13;;;;;;;17.38;11.25;;;-1.90;87.60;;;;;;4880591;29;20184;-60
2024/01/10 06:46:39;;;;;;;15.53;10.27;;;-1.90;87.20;;;;;;4879627;29;20194;-60
2024/01/10 06:49:07;;;;;;;12.97;9.20;;;-1.80;87.00;;;;;;4890811;29;20954;-60
2024/01/10 06:51:33;;;;;;;16.52;12.35;;;-1.70;86.30;;;;;;4879678;29;20537;-60
2024/01/10 06:54:03;;;;;;;15.48;9.65;;;-1.60;85.70;;;;;;4848301;29;20219;-60
2024/01/10 06:56:32;;;;;;;12.48;10.23;;;-1.60;85.20;;;;;;4897903;29;20231;-60
2024/01/10 06:58:59;;;;;;;14.07;10.20;;;-1.80;84.30;;;;;;4889015;29;20240;-60
2024/01/10 07:01:25;;;;;;;15.75;10.05;;;-1.90;84.90;;;;;;4890621;29;20195;-60
2024/01/10 07:03:52;;;;;;;14.53;8.77;;;-1.90;85.70;;;;;;4899054;29;20193;-60
2024/01/10 07:06:18;;;;;;;13.80;9.60;;;-1.80;86.20;;;;;;4898791;29;20416;-60
2024/01/10 07:08:44;;;;;;;16.70;10.20;;;-1.80;86.30;;;;;;4898334;29;20171;-60
2024/01/10 07:11:14;;;;;;;14.38;9.70;;;-1.70;85.30;;;;;;4883455;29;20555;-60
2024/01/10 07:13:41;;;;;;;14.18;11.02;;;-1.80;85.30;;;;;;4889372;29;20485;-60
2024/01/10 07:16:07;;;;;;;15.07;9.80;;;-1.90;84.80;;;;;;4897982;29;20250;-60
2024/01/10 07:18:33;;;;;;;14.77;9.98;;;-1.90;85.10;;;;;;4898131;29;20211;-60
2024/01/10 07:20:59;;;;;;;18.40;9.97;;;-1.90;85.40;;;;;;4896643;29;20611;-60
2024/01/10 07:23:25;;;;;;;12.47;9.30;;;-1.90;85.70;;;;;;4887504;29;20196;-60
2024/01/10 07:25:51;;;;;;;14.40;10.65;;;-1.80;86.20;;;;;;4884489;29;20433;-60
2024/01/10 07:28:17;;;;;;;14.80;10.57;;;-1.80;86.20;;;;;;4891579;29;20666;-60
2024/01/10 07:30:47;;;;;;;13.48;10.00;;;-1.80;86.10;;;;;;4880097;29;20192;-60
2024/01/10 07:33:13;;;;;;;12.23;9.65;;;-2.00;86.00;;;;;;4894536;29;20270;-60
2024/01/10 07:35:39;;;;;;;18.17;10.90;;;-1.90;86.90;;;;;;4864008;29;20307;-61
2024/01/10 07:38:08;;;;;;;14.45;10.57;;;-1.90;87.10;;;;;;4880109;29;20184;-60
2024/01/10 07:40:35;;;;;;;15.52;10.70;;;-1.90;87.10;;;;;;4881975;29;20556;-60
2024/01/10 07:43:01;;;;;;;15.73;11.05;;;-2.00;87.00;;;;;;4898185;29;20274;-60
2024/01/10 07:45:27;;;;;;;15.07;9.63;;;-2.00;87.60;;;;;;4881365;29;20278;-60
2024/01/10 07:47:53;;;;;;;15.20;10.98;;;-2.10;87.70;;;;;;4898486;29;20246;-60
2024/01/10 07:50:19;;;;;;;14.60;10.20;;;-2.10;88.70;;;;;;4880464;29;20187;-60
2024/01/10 07:52:48;;;;;;;19.63;10.35;;;-2.10;89.40;;;;;;4881796;29;20175;-60
2024/01/10 07:55:14;;;;;;;15.80;10.93;;;-2.10;90.00;;;;;;4898748;29;20187;-60
2024/01/10 07:57:42;;;;;;;18.47;11.37;;;-2.00;90.10;;;;;;4896403;29;20486;-60
2024/01/10 08:00:10;;;;;;;21.55;12.05;;;-2.00;90.10;;;;;;4898202;29;20267;-60
2024/01/10 08:02:36;;;;;;;17.98;10.82;;;-1.90;90.60;;;;;;4897775;29;20182;-60
2024/01/10 08:05:08;;;;;;;17.52;11.23;;;-1.90;90.10;;;;;;4898064;29;20241;-60
2024/01/10 08:07:36;;;;;;;15.23;11.57;;;-2.00;90.00;;;;;;4897233;29;20282;-59
2024/01/10 08:10:05;;;;;;;15.35;11.13;;;-2.10;90.10;;;;;;4867121;29;20198;-60
2024/01/10 08:12:30;;;;;;;16.48;11.25;;;-2.00;90.60;;;;;;4897627;29;20178;-60
2024/01/10 08:14:56;;;;;;;19.03;12.57;;;-1.90;90.70;;;;;;4880915;29;20265;-60
2024/01/10 08:17:23;;;;;;;15.80;10.80;;;-1.80;90.40;;;;;;4873042;29;20198;-61
2024/01/10 08:19:49;;;;;;;19.42;11.32;;;-1.70;90.20;;;;;;4882030;29;20264;-60
2024/01/10 08:22:15;;;;;;;14.10;9.98;;;-1.90;89.70;;;;;;4891954;29;20189;-60
2024/01/10 08:24:41;;;;;;;16.75;11.02;;;-2.20;90.20;;;;;;4897530;29;20533;-60
2024/01/10 08:27:07;;;;;;;18.30;11.30;;;-2.40;91.70;;;;;;4892064;29;20179;-60
2024/01/10 08:29:33;;;;;;;13.70;10.05;;;-2.40;91.90;;;;;;4890700;29;20186;-60
2024/01/10 08:31:59;;;;;;;18.10;11.60;;;-2.30;92.00;;;;;;4880488;29;20203;-60
2024/01/10 08:34:25;;;;;;;15.63;11.50;;;-2.20;92.10;;;;;;4888496;29;20448;-60
2024/01/10 08:36:51;;;;;;;20.47;11.50;;;-2.20;91.50;;;;;;4895093;29;20431;-63
2024/01/10 08:39:17;;;;;;;17.33;10.90;;;-2.40;92.00;;;;;;4884792;29;20471;-60
2024/01/10 08:41:44;;;;;;;14.80;10.75;;;-2.50;92.40;;;;;;4890923;29;20187;-60
2024/01/10 08:44:10;;;;;;;16.27;11.98;;;-2.60;93.40;;;;;;4874890;29;20202;-61
2024/01/10 08:46:36;;;;;;;16.20;12.05;;;-2.30;93.80;;;;;;4893159;29;20200;-61
2024/01/10 08:49:02;;;;;;;19.20;11.53;;;-2.20;93.30;;;;;;4894189;29;20270;-61
2024/01/10 08:51:28;;;;;;;16.65;11.02;;;-1.90;93.20;;;;;;4891253;29;20420;-62
2024/01/10 08:53:54;;;;;;;16.38;10.80;;;-1.80;91.90;;;;;;4894882;29;20222;-60
2024/01/10 08:56:20;;;;;;;16.63;11.00;;;-1.70;91.40;;;;;;4892598;29;20246;-60
2024/01/10 08:58:46;;;;;;;18.53;12.20;;;-1.50;91.20;;;;;;4889499;29;20651;-60
2024/01/10 09:01:12;;;;;;;16.50;11.63;;;-1.30;90.80;;;;;;4866137;29;20195;-61
2024/01/10 09:03:38;;;;;;;18.80;13.70;;;-0.70;91.20;;;;;;4884910;29;20290;-61
2024/01/10 09:06:05;;;;;;;20.13;13.93;;;0.40;88.30;;;;;;4883141;29;20181;-60
2024/01/10 09:08:30;;;;;;;18.10;12.30;;;1.60;83.30;;;;;;4885484;29;20177;-60
2024/01/10 09:10:56;;;;;;;18.97;12.87;;;2.70;77.10;;;;;;4879776;29;20564;-60
2024/01/10 09:13:22;;;;;;;18.90;13.40;;;3.70;69.60;;;;;;4887568;29;20433;-60
2024/01/10 09:15:47;;;;;;;17.63;13.90;;;4.20;64.80;;;;;;4882348;29;20180;-62
2024/01/10 09:18:13;;;;;;;19.47;14.03;;;4.80;62.60;;;;;;4885870;29;20642;-60
2024/01/10 09:20:39;;;;;;;16.70;13.60;;;5.70;61.50;;;;;;4891373;29;20744;-60
2024/01/10 09:23:05;;;;;;;15.93;14.23;;;6.60;59.90;;;;;;4882593;29;20244;-60
2024/01/10 09:25:30;;;;;;;21.53;15.07;;;7.00;57.40;;;;;;4860977;29;20192;-60
2024/01/10 09:27:56;;;;;;;19.67;13.97;;;7.30;55.50;;;;;;4887714;29;20184;-60
2024/01/10 09:30:23;;;;;;;22.77;14.10;;;7.60;53.30;;;;;;4886669;29;20183;-60
2024/01/10 09:32:49;;;;;;;18.63;13.57;;;8.00;52.70;;;;;;4887660;29;20261;-60
2024/01/10 09:35:15;;;;;;;19.30;15.87;;;8.40;50.90;;;;;;4880303;29;20572;-60
2024/01/10 09:37:41;;;;;;;22.90;14.37;;;8.90;50.20;;;;;;4861793;29;20188;-60
2024/01/10 09:40:08;;;;;;;18.20;14.70;;;9.90;48.90;;;;;;4865654;29;20460;-60
2024/01/10 09:42:35;;;;;;;25.57;17.10;;;11.00;46.10;;;;;;4881631;29;20191;-60
2024/01/10 09:45:03;;;;;;;20.00;15.33;;;11.70;43.50;;;;;;4882451;29;20764;-61
2024/01/10 09:47:31;;;;;;;22.47;16.80;;;12.40;41.40;;;;;;4868902;29;20432;-60
2024/01/10 09:49:57;;;;;;;20.37;15.90;;;12.90;39.40;;;;;;4900773;29;20484;-60
2024/01/10 09:52:27;;;;;;;19.73;15.50;;;13.40;39.40;;;;;;4900769;29;20471;-60
2024/01/10 09:54:57;;;;;;;21.53;17.73;;;14.10;38.60;;;;;;4900671;29;20422;-60
2024/01/10 09:57:25;;;;;;;19.43;17.43;;;14.00;36.40;;;;;;4900151;29;20881;-60
2024/01/10 09:59:51;;;;;;;23.20;17.70;;;13.90;36.10;;;;;;4899954;29;20539;-60
2024/01/10 10:02:24;;;;;;;18.53;16.50;;;13.60;35.60;;;;;;4883688;29;20923;-60
2024/01/10 10:05:15;;;;;;;20.53;16.90;;;13.20;36.30;;;;;;4899998;29;20466;-60
2024/01/10 10:07:45;;;;;;;20.93;17.70;;;13.20;36.70;;;;;;4899932;29;20468;-60
2024/01/10 10:10:12;;;;;;;22.20;16.97;;;13.50;36.60;;;;;;4900458;29;20434;-60
2024/01/10 10:12:48;;;;;;;22.53;17.53;;;13.70;36.30;;;;;;4899888;29;20475;-61
2024/01/10 10:15:17;;;;;;;21.63;17.40;;;13.80;35.50;;;;;;4900156;29;20825;-60
2024/01/10 10:17:47;;;;;;;24.23;17.90;;;13.90;35.30;;;;;;4898724;29;20434;-60
2024/01/10 10:20:24;;;;;;;22.00;17.63;;;13.90;35.60;;;;;;4883314;29;20994;-60
2024/01/10 10:23:04;;;;;;;21.83;17.47;;;13.50;35.50;;;;;;4899333;29;20482;-60
2024/01/10 10:25:41;;;;;;;21.43;17.07;;;13.40;35.90;;;;;;4883334;29;20421;-61
2024/01/10 10:28:07;;;;;;;21.60;17.37;;;13.10;35.90;;;;;;4900257;29;20418;-60
2024/01/10 10:30:33;;;;;;;20.47;16.73;;;12.90;36.20;;;;;;4899504;29;20413;-61
2024/01/10 10:32:59;;;;;;;23.40;18.33;;;12.60;37.00;;;;;;4900080;29;20202;-60
2024/01/10 10:35:25;;;;;;;21.80;18.07;;;12.00;36.40;;;;;;4899874;29;20539;-60
2024/01/10 10:37:52;;;;;;;21.37;17.03;;;11.30;36.70;;;;;;4899609;29;20505;-60
2024/01/10 10:40:19;;;;;;;22.20;18.00;;;11.00;38.10;;;;;;4899555;29;20467;-60
2024/01/10 10:42:53;;;;;;;21.10;17.70;;;10.50;38.30;;;;;;4899253;29;20408;-60
2024/01/10 10:45:19;;;;;;;23.20;18.03;;;10.30;38.70;;;;;;4900255;29;20481;-60
2024/01/10 10:47:49;;;;;;;23.00;18.20;;;10.00;39.50;;;;;;4897665;29;20437;-60
2024/01/10 10:50:22;;;;;;;22.23;17.50;;;9.40;40.30;;;;;;4899009;29;20541;-60
2024/01/10 10:52:50;;;;;;;22.17;17.63;;;9.10;41.40;;;;;;4897780;29;20780;-60
2024/01/10 10:55:17;;;;;;;23.50;17.23;;;8.90;42.20;;;;;;4882093;29;20471;-60
2024/01/10 10:57:47;;;;;;;22.80;17.10;;;8.70;42.80;;;;;;4899060;29;20530;-60
2024/01/10 11:00:15;;;;;;;23.77;17.53;;;8.00;42.40;;;;;;4899036;29;20461;-60
2024/01/10 11:02:43;;;;;;;25.07;16.93;;;7.40;43.60;;;;;;4898274;29;20415;-60
2024/01/10 11:05:15;;;;;;;21.87;15.90;;;7.10;44.10;;;;;;4899156;29;20423;-60
2024/01/10 11:07:44;;;;;;;21.10;14.97;;;6.80;45.50;;;;;;4898813;29;20441;-60
2024/01/10 11:10:24;;;;;;;24.60;17.87;;;6.90;46.40;;;;;;4899414;29;20415;-59
2024/01/10 11:13:08;;;;;;;23.87;15.90;;;6.70;46.40;;;;;;4893460;29;20438;-59
2024/01/10 11:15:59;;;;;;;22.40;17.27;;;6.50;47.00;;;;;;4896884;29;20773;-60
2024/01/10 11:18:46;;;;;;;22.07;16.07;;;6.30;47.10;;;;;;4882437;29;20406;-59
2024/01/10 11:21:24;;;;;;;23.57;16.73;;;6.20;48.00;;;;;;4899343;29;20543;-59
2024/01/10 11:23:54;;;;;;;24.20;16.83;;;6.30;48.00;;;;;;4881758;29;20454;-60
2024/01/10 11:26:20;;;;;;;24.27;15.60;;;6.50;48.60;;;;;;4899079;29;20421;-60
2024/01/10 11:28:46;;;;;;;23.30;16.70;;;6.40;48.10;;;;;;4898432;29;20402;-60
2024/01/10 11:31:15;;;;;;;23.50;16.23;;;6.30;47.70;;;;;;4899235;29;20432;-60
2024/01/10 11:33:43;;;;;;;21.97;16.73;;;6.40;48.70;;;;;;4898086;29;20410;-60
2024/01/10 11:36:19;;;;;;;23.80;16.93;;;6.50;49.00;;;;;;4899063;29;20429;-59
2024/01/10 11:38:53;;;;;;;23.50;17.37;;;6.70;49.20;;;;;;4898159;29;20925;-60
2024/01/10 11:41:35;;;;;;;22.43;17.27;;;7.00;49.30;;;;;;4898776;29;20426;-60
2024/01/10 11:44:13;;;;;;;26.33;17.60;;;7.00;48.00;;;;;;4881177;29;20955;-60
2024/01/10 11:46:58;;;;;;;23.93;16.87;;;7.00;47.20;;;;;;4897882;29;20508;-60
2024/01/10 11:49:25;;;;;;;22.10;17.30;;;6.70;47.00;;;;;;4896449;29;20824;-59
2024/01/10 11:51:58;;;;;;;22.27;16.87;;;6.70;47.80;;;;;;4897725;29;20418;-62
2024/01/10 11:54:44;;;;;;;25.57;16.00;;;6.80;47.80;;;;;;4898613;29;20943;-62
2024/01/10 11:57:19;;;;;;;21.20;16.97;;;7.10;48.30;;;;;;4898164;29;20467;-64
2024/01/10 11:59:45;;;;;;;22.30;16.50;;;7.30;47.70;;;;;;4879723;29;20557;-64
2024/01/10 12:02:14;;;;;;;27.47;18.20;;;7.20;47.50;;;;;;4898019;29;20521;-65
2024/01/10 12:04:41;;;;;;;22.77;16.30;;;7.30;47.30;;;;;;4880692;29;20434;-63
2024/01/10 12:07:07;;;;;;;24.30;17.10;;;7.30;46.60;;;;;;4898475;29;20932;-62
2024/01/10 12:09:36;;;;;;;21.37;15.07;;;7.40;47.80;;;;;;4869884;29;20454;-62
2024/01/10 12:12:03;;;;;;;22.10;16.50;;;7.40;47.10;;;;;;4905519;29;20452;-61
2024/01/10 12:14:30;;;;;;;20.53;17.03;;;7.20;46.10;;;;;;4904808;29;20883;-62
2024/01/10 12:16:56;;;;;;;23.17;16.90;;;7.00;46.70;;;;;;4909827;29;20774;-61
2024/01/10 12:19:22;;;;;;;21.97;16.07;;;7.00;47.80;;;;;;4905450;29;20461;-61
2024/01/10 12:21:49;;;;;;;23.60;17.83;;;7.10;47.40;;;;;;4903701;29;20415;-62
2024/01/10 12:24:14;;;;;;;24.00;17.23;;;7.10;47.30;;;;;;4904110;29;20552;-60
2024/01/10 12:26:44;;;;;;;23.13;16.60;;;7.10;49.30;;;;;;4905447;29;20422;-60
2024/01/10 12:29:11;;;;;;;24.70;16.47;;;7.10;48.50;;;;;;4906003;29;20425;-61
2024/01/10 12:31:38;;;;;;;22.13;16.27;;;7.10;48.50;;;;;;4906260;29;20437;-64
2024/01/10 12:34:08;;;;;;;25.50;16.70;;;7.20;47.90;;;;;;4913312;29;20430;-60
2024/01/10 12:36:34;;;;;;;22.77;16.30;;;7.30;47.80;;;;;;4916955;29;20411;-60